SVMG/PMV METAR and TAF weather

Enter ICAO airport designator
Station Type Date Time Source
SVMG METAR 2019/02/22 22:00 UTC NOAA

SVMG 222200Z /////KT 9999 FEW01029/23 Q1013 NOSIG


Station Type Date Time Source
SVMG Decoded METAR 2019/02/22 22:00 UTC NOAA

Margarita / Del Carib, Venezuela (SVMG) 10-55N 063-59W
Feb 22, 2019 - 05:00 PM EST / 2019.02.22 2200 UTC
Visibility: greater than 7 mile(s):0
Sky conditions: mostly clear
Pressure (altimeter): 29.91 in. Hg (1013 hPa)
ob: SVMG 222200Z /////KT 9999 FEW01029/23 Q1013 NOSIG
cycle: 22

Station Type Date Time Source
SVMG TAF 2019/02/22 18:03 UTC NOAA

TAF SVMG 221600Z 2218/2318 09005KT 9999 FEW010 TX33/19Z TN24/09Z
BECMG 2218/2222 00000KT


Example: see airport list